sensor_id;sensor_type;location;lat;lon;timestamp;pressure;altitude;pressure_sealevel;temperature;humidity
81033;BME280;70514;52.478;6.102;2024-01-27T00:00:40;103455.09;;;6.38;94.50
81033;BME280;70514;52.478;6.102;2024-01-27T00:03:08;103449.06;;;6.89;99.85
81033;BME280;70514;52.478;6.102;2024-01-27T00:05:35;103455.19;;;7.31;97.81
81033;BME280;70514;52.478;6.102;2024-01-27T00:08:03;103453.34;;;7.15;97.01
81033;BME280;70514;52.478;6.102;2024-01-27T00:10:31;103453.53;;;6.92;95.60
81033;BME280;70514;52.478;6.102;2024-01-27T00:12:58;103447.34;;;6.37;98.13
81033;BME280;70514;52.478;6.102;2024-01-27T00:15:26;103446.84;;;6.43;100.00
81033;BME280;70514;52.478;6.102;2024-01-27T00:17:54;103459.91;;;6.85;99.60
81033;BME280;70514;52.478;6.102;2024-01-27T00:20:21;103455.78;;;7.26;98.64
81033;BME280;70514;52.478;6.102;2024-01-27T00:22:49;103452.84;;;7.34;97.07
81033;BME280;70514;52.478;6.102;2024-01-27T00:25:17;103445.94;;;7.33;97.26
81033;BME280;70514;52.478;6.102;2024-01-27T00:27:44;103453.91;;;6.84;98.15
81033;BME280;70514;52.478;6.102;2024-01-27T00:30:12;103455.22;;;6.40;100.00
81033;BME280;70514;52.478;6.102;2024-01-27T00:32:40;103462.69;;;6.88;100.00
81033;BME280;70514;52.478;6.102;2024-01-27T00:35:08;103458.84;;;6.95;97.96
81033;BME280;70514;52.478;6.102;2024-01-27T00:37:38;103455.00;;;6.88;98.54
81033;BME280;70514;52.478;6.102;2024-01-27T00:40:09;103463.03;;;6.55;98.89
81033;BME280;70514;52.478;6.102;2024-01-27T00:42:37;103471.75;;;6.96;99.12
81033;BME280;70514;52.478;6.102;2024-01-27T00:45:05;103457.16;;;6.95;96.62
81033;BME280;70514;52.478;6.102;2024-01-27T00:47:33;103459.72;;;7.21;96.50
81033;BME280;70514;52.478;6.102;2024-01-27T00:50:00;103461.78;;;7.53;96.51
81033;BME280;70514;52.478;6.102;2024-01-27T00:52:28;103464.81;;;6.69;94.30
81033;BME280;70514;52.478;6.102;2024-01-27T00:54:56;103465.03;;;5.61;97.50
81033;BME280;70514;52.478;6.102;2024-01-27T00:57:23;103467.22;;;4.97;100.00
81033;BME280;70514;52.478;6.102;2024-01-27T00:59:51;103454.44;;;5.43;100.00
81033;BME280;70514;52.478;6.102;2024-01-27T01:02:19;103474.06;;;6.29;100.00
81033;BME280;70514;52.478;6.102;2024-01-27T01:04:46;103472.91;;;6.75;100.00
81033;BME280;70514;52.478;6.102;2024-01-27T01:07:15;103464.75;;;6.80;98.65
81033;BME280;70514;52.478;6.102;2024-01-27T01:09:43;103468.19;;;6.43;99.79
81033;BME280;70514;52.478;6.102;2024-01-27T01:12:10;103472.84;;;5.51;97.50
81033;BME280;70514;52.478;6.102;2024-01-27T01:14:38;103471.78;;;5.84;100.00
81033;BME280;70514;52.478;6.102;2024-01-27T01:17:07;103471.22;;;5.28;99.35
81033;BME280;70514;52.478;6.102;2024-01-27T01:19:35;103474.34;;;5.84;100.00
81033;BME280;70514;52.478;6.102;2024-01-27T01:22:04;103469.81;;;6.16;100.00
81033;BME280;70514;52.478;6.102;2024-01-27T01:24:32;103468.66;;;6.24;100.00
81033;BME280;70514;52.478;6.102;2024-01-27T01:26:59;103482.44;;;6.64;99.86
81033;BME280;70514;52.478;6.102;2024-01-27T01:29:27;103473.31;;;6.81;98.99
81033;BME280;70514;52.478;6.102;2024-01-27T01:31:55;103478.75;;;6.23;97.00
81033;BME280;70514;52.478;6.102;2024-01-27T01:34:23;103476.78;;;6.19;100.00
81033;BME280;70514;52.478;6.102;2024-01-27T01:36:51;103486.66;;;6.51;100.00
81033;BME280;70514;52.478;6.102;2024-01-27T01:39:18;103484.94;;;6.89;99.24
81033;BME280;70514;52.478;6.102;2024-01-27T01:41:46;103482.75;;;6.69;99.87
81033;BME280;70514;52.478;6.102;2024-01-27T01:44:13;103484.66;;;6.47;99.55
81033;BME280;70514;52.478;6.102;2024-01-27T01:46:41;103489.06;;;6.74;100.00
81033;BME280;70514;52.478;6.102;2024-01-27T01:49:09;103494.25;;;6.62;97.78
81033;BME280;70514;52.478;6.102;2024-01-27T01:51:37;103484.56;;;6.45;98.00
81033;BME280;70514;52.478;6.102;2024-01-27T01:54:05;103492.22;;;6.32;100.00
81033;BME280;70514;52.478;6.102;2024-01-27T01:56:34;103495.22;;;6.51;99.68
81033;BME280;70514;52.478;6.102;2024-01-27T01:59:01;103490.47;;;6.44;96.13
81033;BME280;70514;52.478;6.102;2024-01-27T02:01:30;103480.41;;;6.72;100.00
81033;BME280;70514;52.478;6.102;2024-01-27T02:03:58;103488.50;;;6.91;97.60
81033;BME280;70514;52.478;6.102;2024-01-27T02:06:25;103486.63;;;7.02;97.56
81033;BME280;70514;52.478;6.102;2024-01-27T02:08:53;103488.66;;;6.68;96.98
81033;BME280;70514;52.478;6.102;2024-01-27T02:11:21;103490.56;;;6.97;98.46
81033;BME280;70514;52.478;6.102;2024-01-27T02:13:48;103493.84;;;6.94;97.82
81033;BME280;70514;52.478;6.102;2024-01-27T02:16:16;103491.66;;;7.00;95.78
81033;BME280;70514;52.478;6.102;2024-01-27T02:18:45;103489.19;;;7.02;97.88
81033;BME280;70514;52.478;6.102;2024-01-27T02:21:13;103496.41;;;6.94;97.67
81033;BME280;70514;52.478;6.102;2024-01-27T02:23:43;103487.91;;;6.82;96.25
81033;BME280;70514;52.478;6.102;2024-01-27T02:26:11;103502.25;;;6.80;97.06
81033;BME280;70514;52.478;6.102;2024-01-27T02:28:38;103506.66;;;6.69;99.25
81033;BME280;70514;52.478;6.102;2024-01-27T02:31:06;103499.72;;;6.80;98.39
81033;BME280;70514;52.478;6.102;2024-01-27T02:33:33;103499.63;;;6.54;99.32
81033;BME280;70514;52.478;6.102;2024-01-27T02:36:01;103496.38;;;6.81;98.79
81033;BME280;70514;52.478;6.102;2024-01-27T02:38:29;103489.09;;;6.87;97.68
81033;BME280;70514;52.478;6.102;2024-01-27T02:40:56;103480.63;;;7.01;97.69
81033;BME280;70514;52.478;6.102;2024-01-27T02:43:24;103475.13;;;7.08;97.19
81033;BME280;70514;52.478;6.102;2024-01-27T02:45:51;103477.88;;;7.24;95.99
81033;BME280;70514;52.478;6.102;2024-01-27T02:48:19;103482.69;;;7.33;96.21
81033;BME280;70514;52.478;6.102;2024-01-27T02:50:47;103479.53;;;7.37;94.97
81033;BME280;70514;52.478;6.102;2024-01-27T02:53:14;103480.03;;;7.32;95.14
81033;BME280;70514;52.478;6.102;2024-01-27T02:55:42;103491.28;;;7.34;94.52
81033;BME280;70514;52.478;6.102;2024-01-27T02:58:09;103488.13;;;7.11;95.61
81033;BME280;70514;52.478;6.102;2024-01-27T03:00:37;103486.66;;;7.15;96.22
81033;BME280;70514;52.478;6.102;2024-01-27T03:03:05;103491.66;;;7.00;97.04
81033;BME280;70514;52.478;6.102;2024-01-27T03:05:32;103495.50;;;7.07;96.00
81033;BME280;70514;52.478;6.102;2024-01-27T03:08:00;103489.31;;;7.03;96.75
81033;BME280;70514;52.478;6.102;2024-01-27T03:10:28;103488.72;;;7.07;96.47
81033;BME280;70514;52.478;6.102;2024-01-27T03:12:56;103480.63;;;7.01;96.57
81033;BME280;70514;52.478;6.102;2024-01-27T03:15:24;103481.19;;;6.71;97.03
81033;BME280;70514;52.478;6.102;2024-01-27T03:17:51;103479.81;;;6.89;97.97
81033;BME280;70514;52.478;6.102;2024-01-27T03:20:19;103480.03;;;7.18;96.19
81033;BME280;70514;52.478;6.102;2024-01-27T03:22:47;103476.09;;;7.10;94.92
81033;BME280;70514;52.478;6.102;2024-01-27T03:25:15;103482.88;;;6.97;92.31
81033;BME280;70514;52.478;6.102;2024-01-27T03:27:42;103471.06;;;7.12;96.83
81033;BME280;70514;52.478;6.102;2024-01-27T03:30:10;103479.13;;;6.92;97.96
81033;BME280;70514;52.478;6.102;2024-01-27T03:32:38;103488.19;;;7.00;96.32
81033;BME280;70514;52.478;6.102;2024-01-27T03:35:06;103477.78;;;7.23;96.28
81033;BME280;70514;52.478;6.102;2024-01-27T03:37:34;103484.88;;;7.14;96.03
81033;BME280;70514;52.478;6.102;2024-01-27T03:40:02;103489.88;;;6.86;93.95
81033;BME280;70514;52.478;6.102;2024-01-27T03:42:29;103487.19;;;6.84;97.13
81033;BME280;70514;52.478;6.102;2024-01-27T03:44:57;103490.47;;;6.95;96.79
81033;BME280;70514;52.478;6.102;2024-01-27T03:47:24;103491.94;;;6.78;97.75
81033;BME280;70514;52.478;6.102;2024-01-27T03:49:52;103503.34;;;6.70;97.94
81033;BME280;70514;52.478;6.102;2024-01-27T03:52:20;103494.59;;;6.80;97.31
81033;BME280;70514;52.478;6.102;2024-01-27T03:54:48;103502.13;;;6.65;98.45
81033;BME280;70514;52.478;6.102;2024-01-27T03:57:15;103511.97;;;6.34;95.59
81033;BME280;70514;52.478;6.102;2024-01-27T03:59:43;103511.97;;;6.59;98.08
81033;BME280;70514;52.478;6.102;2024-01-27T04:02:11;103500.13;;;6.86;97.11
81033;BME280;70514;52.478;6.102;2024-01-27T04:04:39;103518.69;;;7.08;96.53
81033;BME280;70514;52.478;6.102;2024-01-27T04:07:06;103524.00;;;6.98;96.41
81033;BME280;70514;52.478;6.102;2024-01-27T04:09:34;103521.78;;;6.91;96.99
81033;BME280;70514;52.478;6.102;2024-01-27T04:12:02;103523.81;;;7.08;96.44
81033;BME280;70514;52.478;6.102;2024-01-27T04:14:30;103528.47;;;6.89;96.59
81033;BME280;70514;52.478;6.102;2024-01-27T04:16:57;103536.56;;;6.95;96.25
81033;BME280;70514;52.478;6.102;2024-01-27T04:19:25;103522.72;;;6.67;97.63
81033;BME280;70514;52.478;6.102;2024-01-27T04:21:53;103534.34;;;6.75;97.27
81033;BME280;70514;52.478;6.102;2024-01-27T04:24:20;103525.06;;;6.89;97.01
81033;BME280;70514;52.478;6.102;2024-01-27T04:26:48;103515.25;;;6.70;97.22
81033;BME280;70514;52.478;6.102;2024-01-27T04:29:16;103521.09;;;6.80;97.24
81033;BME280;70514;52.478;6.102;2024-01-27T04:31:43;103510.28;;;6.98;96.44
81033;BME280;70514;52.478;6.102;2024-01-27T04:34:11;103509.34;;;6.84;96.91
81033;BME280;70514;52.478;6.102;2024-01-27T04:36:39;103509.47;;;6.86;96.65
81033;BME280;70514;52.478;6.102;2024-01-27T04:39:08;103512.97;;;6.99;96.24
81033;BME280;70514;52.478;6.102;2024-01-27T04:41:40;103513.63;;;6.97;95.92
81033;BME280;70514;52.478;6.102;2024-01-27T04:44:08;103508.03;;;7.02;96.16
81033;BME280;70514;52.478;6.102;2024-01-27T04:46:36;103503.41;;;7.23;95.07
81033;BME280;70514;52.478;6.102;2024-01-27T04:49:03;103493.53;;;7.03;95.86
81033;BME280;70514;52.478;6.102;2024-01-27T04:51:31;103500.63;;;7.07;95.66
81033;BME280;70514;52.478;6.102;2024-01-27T04:53:59;103493.25;;;7.38;95.39
81033;BME280;70514;52.478;6.102;2024-01-27T04:56:27;103488.13;;;7.11;95.46
81033;BME280;70514;52.478;6.102;2024-01-27T04:58:54;103491.72;;;6.75;96.44
81033;BME280;70514;52.478;6.102;2024-01-27T05:01:22;103488.25;;;6.62;97.14
81033;BME280;70514;52.478;6.102;2024-01-27T05:03:49;103484.81;;;6.74;97.69
81033;BME280;70514;52.478;6.102;2024-01-27T05:06:18;103486.16;;;6.56;97.04
81033;BME280;70514;52.478;6.102;2024-01-27T05:08:46;103483.81;;;6.59;97.62
81033;BME280;70514;52.478;6.102;2024-01-27T05:11:13;103483.94;;;6.74;95.89
81033;BME280;70514;52.478;6.102;2024-01-27T05:13:41;103493.41;;;6.75;97.33
81033;BME280;70514;52.478;6.102;2024-01-27T05:16:08;103496.78;;;6.87;96.70
81033;BME280;70514;52.478;6.102;2024-01-27T05:18:36;103488.09;;;6.85;95.90
81033;BME280;70514;52.478;6.102;2024-01-27T05:21:04;103486.31;;;6.71;96.38
81033;BME280;70514;52.478;6.102;2024-01-27T05:23:31;103489.13;;;7.13;95.85
81033;BME280;70514;52.478;6.102;2024-01-27T05:25:59;103494.44;;;7.30;94.59
81033;BME280;70514;52.478;6.102;2024-01-27T05:28:27;103494.94;;;7.24;94.44
81033;BME280;70514;52.478;6.102;2024-01-27T05:30:54;103494.22;;;7.00;95.22
81033;BME280;70514;52.478;6.102;2024-01-27T05:33:22;103492.78;;;7.30;94.83
81033;BME280;70514;52.478;6.102;2024-01-27T05:35:49;103496.41;;;7.34;93.86
81033;BME280;70514;52.478;6.102;2024-01-27T05:38:17;103499.75;;;7.06;94.39
81033;BME280;70514;52.478;6.102;2024-01-27T05:40:45;103502.19;;;7.05;95.25
81033;BME280;70514;52.478;6.102;2024-01-27T05:43:12;103495.94;;;6.75;96.67
81033;BME280;70514;52.478;6.102;2024-01-27T05:45:40;103497.56;;;6.86;95.81
81033;BME280;70514;52.478;6.102;2024-01-27T05:48:07;103498.44;;;6.87;95.92
81033;BME280;70514;52.478;6.102;2024-01-27T05:50:35;103509.22;;;7.07;95.49
81033;BME280;70514;52.478;6.102;2024-01-27T05:53:03;103507.59;;;6.83;95.37
81033;BME280;70514;52.478;6.102;2024-01-27T05:55:31;103501.00;;;6.73;97.15
81033;BME280;70514;52.478;6.102;2024-01-27T05:57:59;103497.97;;;6.92;96.29
81033;BME280;70514;52.478;6.102;2024-01-27T06:00:26;103508.22;;;6.92;96.19
81033;BME280;70514;52.478;6.102;2024-01-27T06:02:54;103498.31;;;6.72;96.73
81033;BME280;70514;52.478;6.102;2024-01-27T06:05:22;103518.03;;;6.86;94.58
81033;BME280;70514;52.478;6.102;2024-01-27T06:07:49;103506.97;;;7.25;94.58
81033;BME280;70514;52.478;6.102;2024-01-27T06:10:17;103515.50;;;7.52;93.37
81033;BME280;70514;52.478;6.102;2024-01-27T06:12:45;103513.63;;;7.36;93.01
81033;BME280;70514;52.478;6.102;2024-01-27T06:15:13;103505.13;;;6.84;94.06
81033;BME280;70514;52.478;6.102;2024-01-27T06:17:43;103510.19;;;6.96;94.98
81033;BME280;70514;52.478;6.102;2024-01-27T06:20:10;103518.81;;;6.72;95.56
81033;BME280;70514;52.478;6.102;2024-01-27T06:22:38;103508.41;;;6.32;96.72
81033;BME280;70514;52.478;6.102;2024-01-27T06:25:07;103513.75;;;6.60;97.25
81033;BME280;70514;52.478;6.102;2024-01-27T06:27:35;103508.56;;;6.72;97.33
81033;BME280;70514;52.478;6.102;2024-01-27T06:30:04;103510.53;;;6.89;96.39
81033;BME280;70514;52.478;6.102;2024-01-27T06:32:32;103507.50;;;6.81;95.99
81033;BME280;70514;52.478;6.102;2024-01-27T06:34:59;103511.66;;;6.55;97.05
81033;BME280;70514;52.478;6.102;2024-01-27T06:37:27;103526.06;;;7.04;95.83
81033;BME280;70514;52.478;6.102;2024-01-27T06:39:55;103525.38;;;7.33;93.11
81033;BME280;70514;52.478;6.102;2024-01-27T06:42:22;103523.97;;;6.47;97.08
81033;BME280;70514;52.478;6.102;2024-01-27T06:44:50;103532.84;;;6.65;97.58
81033;BME280;70514;52.478;6.102;2024-01-27T06:47:17;103532.63;;;6.87;96.38
81033;BME280;70514;52.478;6.102;2024-01-27T06:49:45;103528.22;;;7.11;94.63
81033;BME280;70514;52.478;6.102;2024-01-27T06:52:13;103529.91;;;7.23;94.36
81033;BME280;70514;52.478;6.102;2024-01-27T06:54:40;103533.22;;;6.33;95.50
81033;BME280;70514;52.478;6.102;2024-01-27T06:57:21;103530.63;;;6.45;98.43
81033;BME280;70514;52.478;6.102;2024-01-27T06:59:50;103535.41;;;6.65;95.36
81033;BME280;70514;52.478;6.102;2024-01-27T07:02:24;103541.97;;;6.12;95.61
81033;BME280;70514;52.478;6.102;2024-01-27T07:04:53;103541.38;;;5.56;98.58
81033;BME280;70514;52.478;6.102;2024-01-27T07:07:22;103549.47;;;5.97;100.00
81033;BME280;70514;52.478;6.102;2024-01-27T07:09:51;103551.16;;;5.50;94.09
81033;BME280;70514;52.478;6.102;2024-01-27T07:12:19;103539.94;;;5.72;100.00
81033;BME280;70514;52.478;6.102;2024-01-27T07:14:47;103540.16;;;5.63;100.00
81033;BME280;70514;52.478;6.102;2024-01-27T07:17:14;103549.59;;;5.99;100.00
81033;BME280;70514;52.478;6.102;2024-01-27T07:19:42;103544.63;;;5.54;97.53
81033;BME280;70514;52.478;6.102;2024-01-27T07:22:10;103547.28;;;6.27;98.97
81033;BME280;70514;52.478;6.102;2024-01-27T07:24:38;103553.41;;;5.46;100.00
81033;BME280;70514;52.478;6.102;2024-01-27T07:27:06;103551.41;;;5.53;100.00
81033;BME280;70514;52.478;6.102;2024-01-27T07:29:33;103551.25;;;5.98;100.00
81033;BME280;70514;52.478;6.102;2024-01-27T07:32:01;103549.50;;;5.63;99.63
81033;BME280;70514;52.478;6.102;2024-01-27T07:34:29;103555.22;;;6.07;98.45
81033;BME280;70514;52.478;6.102;2024-01-27T07:36:56;103564.75;;;4.93;98.25
81033;BME280;70514;52.478;6.102;2024-01-27T07:39:24;103567.22;;;4.58;100.00
81033;BME280;70514;52.478;6.102;2024-01-27T07:41:51;103565.22;;;3.78;100.00
81033;BME280;70514;52.478;6.102;2024-01-27T07:44:19;103566.25;;;3.38;100.00
81033;BME280;70514;52.478;6.102;2024-01-27T07:46:47;103571.78;;;2.92;100.00
81033;BME280;70514;52.478;6.102;2024-01-27T07:49:14;103566.41;;;2.49;100.00
81033;BME280;70514;52.478;6.102;2024-01-27T07:51:42;103567.75;;;2.25;100.00
81033;BME280;70514;52.478;6.102;2024-01-27T07:54:10;103572.69;;;2.24;100.00
81033;BME280;70514;52.478;6.102;2024-01-27T07:56:38;103576.50;;;2.19;100.00
81033;BME280;70514;52.478;6.102;2024-01-27T07:59:06;103578.25;;;2.48;100.00
81033;BME280;70514;52.478;6.102;2024-01-27T08:01:41;103578.19;;;1.89;100.00
81033;BME280;70514;52.478;6.102;2024-01-27T08:04:09;103568.47;;;2.04;100.00
81033;BME280;70514;52.478;6.102;2024-01-27T08:06:47;103585.41;;;2.24;100.00
81033;BME280;70514;52.478;6.102;2024-01-27T08:09:15;103575.84;;;1.82;100.00
81033;BME280;70514;52.478;6.102;2024-01-27T08:11:43;103588.53;;;2.01;100.00
81033;BME280;70514;52.478;6.102;2024-01-27T08:14:11;103587.78;;;2.61;100.00
81033;BME280;70514;52.478;6.102;2024-01-27T08:16:39;103583.47;;;3.00;100.00
81033;BME280;70514;52.478;6.102;2024-01-27T08:19:06;103580.47;;;3.99;100.00
81033;BME280;70514;52.478;6.102;2024-01-27T08:21:34;103581.84;;;3.63;100.00
81033;BME280;70514;52.478;6.102;2024-01-27T08:24:01;103585.22;;;3.84;100.00
81033;BME280;70514;52.478;6.102;2024-01-27T08:26:29;103589.63;;;4.62;100.00
81033;BME280;70514;52.478;6.102;2024-01-27T08:28:57;103584.47;;;5.05;100.00
81033;BME280;70514;52.478;6.102;2024-01-27T08:31:26;103579.41;;;4.50;100.00
81033;BME280;70514;52.478;6.102;2024-01-27T08:33:54;103601.22;;;5.13;100.00
81033;BME280;70514;52.478;6.102;2024-01-27T08:36:22;103593.72;;;5.73;100.00
81033;BME280;70514;52.478;6.102;2024-01-27T08:38:49;103598.56;;;6.28;100.00
81033;BME280;70514;52.478;6.102;2024-01-27T08:41:17;103604.81;;;6.81;100.00
81033;BME280;70514;52.478;6.102;2024-01-27T08:43:45;103605.31;;;6.89;97.87
81033;BME280;70514;52.478;6.102;2024-01-27T08:46:12;103600.50;;;7.32;96.31
81033;BME280;70514;52.478;6.102;2024-01-27T08:48:42;103607.72;;;7.50;93.51
81033;BME280;70514;52.478;6.102;2024-01-27T08:51:10;103603.03;;;7.18;93.70
81033;BME280;70514;52.478;6.102;2024-01-27T08:53:39;103606.41;;;7.57;93.35
81033;BME280;70514;52.478;6.102;2024-01-27T08:56:07;103621.09;;;7.33;93.89
81033;BME280;70514;52.478;6.102;2024-01-27T08:58:35;103618.25;;;7.42;93.50
81033;BME280;70514;52.478;6.102;2024-01-27T09:01:02;103610.47;;;7.40;93.88
81033;BME280;70514;52.478;6.102;2024-01-27T09:03:33;103619.63;;;7.37;94.29
81033;BME280;70514;52.478;6.102;2024-01-27T09:06:01;103627.16;;;7.60;93.32
81033;BME280;70514;52.478;6.102;2024-01-27T09:08:28;103620.09;;;7.31;93.17
81033;BME280;70514;52.478;6.102;2024-01-27T09:10:56;103610.84;;;7.20;95.23
81033;BME280;70514;52.478;6.102;2024-01-27T09:13:23;103614.72;;;7.40;96.99
81033;BME280;70514;52.478;6.102;2024-01-27T09:15:51;103614.13;;;7.70;93.89
81033;BME280;70514;52.478;6.102;2024-01-27T09:18:19;103608.78;;;8.06;93.03
81033;BME280;70514;52.478;6.102;2024-01-27T09:20:49;103618.47;;;8.51;92.03
81033;BME280;70514;52.478;6.102;2024-01-27T09:23:17;103609.13;;;8.67;90.53
81033;BME280;70514;52.478;6.102;2024-01-27T09:25:44;103605.06;;;8.42;88.50
81033;BME280;70514;52.478;6.102;2024-01-27T09:28:12;103614.50;;;8.84;88.47
81033;BME280;70514;52.478;6.102;2024-01-27T09:30:39;103614.34;;;9.11;90.64
81033;BME280;70514;52.478;6.102;2024-01-27T09:33:08;103610.00;;;9.10;86.87
81033;BME280;70514;52.478;6.102;2024-01-27T09:35:35;103611.94;;;9.28;86.28
81033;BME280;70514;52.478;6.102;2024-01-27T09:38:03;103612.84;;;9.29;89.59
81033;BME280;70514;52.478;6.102;2024-01-27T09:40:31;103618.50;;;9.38;88.19
81033;BME280;70514;52.478;6.102;2024-01-27T09:42:59;103617.97;;;9.29;90.08
81033;BME280;70514;52.478;6.102;2024-01-27T09:45:26;103623.47;;;9.35;91.00
81033;BME280;70514;52.478;6.102;2024-01-27T09:47:56;103618.69;;;9.56;85.20
81033;BME280;70514;52.478;6.102;2024-01-27T09:50:24;103617.19;;;9.90;87.29
81033;BME280;70514;52.478;6.102;2024-01-27T09:52:52;103620.59;;;9.89;85.44
81033;BME280;70514;52.478;6.102;2024-01-27T09:55:21;103614.09;;;10.12;84.56
81033;BME280;70514;52.478;6.102;2024-01-27T09:57:48;103619.22;;;10.27;84.42
81033;BME280;70514;52.478;6.102;2024-01-27T10:00:16;103626.34;;;10.31;85.55
81033;BME280;70514;52.478;6.102;2024-01-27T10:02:45;103625.72;;;10.51;81.61
81033;BME280;70514;52.478;6.102;2024-01-27T10:05:14;103621.13;;;10.61;84.29
81033;BME280;70514;52.478;6.102;2024-01-27T10:07:42;103632.25;;;10.77;79.58
81033;BME280;70514;52.478;6.102;2024-01-27T10:10:10;103634.06;;;10.63;79.82
81033;BME280;70514;52.478;6.102;2024-01-27T10:12:41;103633.38;;;10.82;80.34
81033;BME280;70514;52.478;6.102;2024-01-27T10:15:19;103637.13;;;10.88;77.96
81033;BME280;70514;52.478;6.102;2024-01-27T10:17:47;103630.84;;;10.99;76.45
81033;BME280;70514;52.478;6.102;2024-01-27T10:20:15;103634.88;;;10.94;76.81
81033;BME280;70514;52.478;6.102;2024-01-27T10:22:46;103637.28;;;11.07;75.76
81033;BME280;70514;52.478;6.102;2024-01-27T10:25:13;103626.69;;;11.19;73.87
81033;BME280;70514;52.478;6.102;2024-01-27T10:27:42;103644.81;;;11.21;73.14
81033;BME280;70514;52.478;6.102;2024-01-27T10:30:17;103636.47;;;11.42;72.67
81033;BME280;70514;52.478;6.102;2024-01-27T10:32:55;103634.16;;;11.31;71.55
81033;BME280;70514;52.478;6.102;2024-01-27T10:35:25;103630.63;;;11.29;72.26
81033;BME280;70514;52.478;6.102;2024-01-27T10:37:54;103634.34;;;11.51;71.37
81033;BME280;70514;52.478;6.102;2024-01-27T10:40:25;103632.84;;;11.73;70.25
81033;BME280;70514;52.478;6.102;2024-01-27T10:43:05;103638.44;;;11.82;69.57
81033;BME280;70514;52.478;6.102;2024-01-27T10:45:35;103633.28;;;11.82;68.95
81033;BME280;70514;52.478;6.102;2024-01-27T10:48:04;103634.16;;;11.82;69.50
81033;BME280;70514;52.478;6.102;2024-01-27T10:50:36;103637.44;;;11.62;69.10
81033;BME280;70514;52.478;6.102;2024-01-27T10:53:21;103647.09;;;11.66;68.56
81033;BME280;70514;52.478;6.102;2024-01-27T10:55:53;103643.19;;;11.57;69.36
81033;BME280;70514;52.478;6.102;2024-01-27T10:58:23;103654.88;;;11.32;67.47
81033;BME280;70514;52.478;6.102;2024-01-27T11:00:50;103650.91;;;11.05;72.18
81033;BME280;70514;52.478;6.102;2024-01-27T11:03:21;103651.03;;;11.58;70.11
81033;BME280;70514;52.478;6.102;2024-01-27T11:05:51;103643.13;;;11.55;70.17
81033;BME280;70514;52.478;6.102;2024-01-27T11:08:20;103635.03;;;11.65;70.15
81033;BME280;70514;52.478;6.102;2024-01-27T11:10:51;103632.38;;;11.81;69.36
81033;BME280;70514;52.478;6.102;2024-01-27T11:13:19;103635.06;;;11.83;69.41
81033;BME280;70514;52.478;6.102;2024-01-27T11:15:50;103630.47;;;11.77;68.80
81033;BME280;70514;52.478;6.102;2024-01-27T11:18:18;103633.34;;;11.66;69.85
81033;BME280;70514;52.478;6.102;2024-01-27T11:20:46;103637.34;;;11.77;67.58
81033;BME280;70514;52.478;6.102;2024-01-27T11:23:14;103632.84;;;11.90;69.21
81033;BME280;70514;52.478;6.102;2024-01-27T11:25:42;103622.88;;;11.98;68.92
81033;BME280;70514;52.478;6.102;2024-01-27T11:28:10;103626.78;;;11.90;68.67
81033;BME280;70514;52.478;6.102;2024-01-27T11:30:39;103619.78;;;11.87;68.89
81033;BME280;70514;52.478;6.102;2024-01-27T11:33:07;103623.25;;;11.88;68.69
81033;BME280;70514;52.478;6.102;2024-01-27T11:35:36;103619.94;;;11.73;69.37
81033;BME280;70514;52.478;6.102;2024-01-27T11:38:04;103616.88;;;11.64;69.07
81033;BME280;70514;52.478;6.102;2024-01-27T11:40:31;103621.78;;;11.75;69.08
81033;BME280;70514;52.478;6.102;2024-01-27T11:43:00;103634.28;;;11.68;69.19
81033;BME280;70514;52.478;6.102;2024-01-27T11:45:32;103628.50;;;11.56;70.14
81033;BME280;70514;52.478;6.102;2024-01-27T11:48:00;103631.19;;;11.57;70.18
81033;BME280;70514;52.478;6.102;2024-01-27T11:50:28;103625.88;;;11.54;68.83
81033;BME280;70514;52.478;6.102;2024-01-27T11:52:55;103623.22;;;11.52;70.38
81033;BME280;70514;52.478;6.102;2024-01-27T11:55:23;103623.50;;;11.59;70.23
81033;BME280;70514;52.478;6.102;2024-01-27T11:57:51;103628.38;;;11.52;70.24
81033;BME280;70514;52.478;6.102;2024-01-27T12:00:18;103623.34;;;11.38;70.98
81033;BME280;70514;52.478;6.102;2024-01-27T12:02:49;103627.50;;;11.52;70.80
81033;BME280;70514;52.478;6.102;2024-01-27T12:05:17;103626.81;;;11.38;71.14
81033;BME280;70514;52.478;6.102;2024-01-27T12:07:45;103626.41;;;11.31;71.08
81033;BME280;70514;52.478;6.102;2024-01-27T12:10:13;103619.78;;;11.36;71.49
81033;BME280;70514;52.478;6.102;2024-01-27T12:12:41;103628.41;;;11.36;70.72
81033;BME280;70514;52.478;6.102;2024-01-27T12:15:09;103624.00;;;11.34;70.79
81033;BME280;70514;52.478;6.102;2024-01-27T12:17:37;103619.25;;;11.25;71.73
81033;BME280;70514;52.478;6.102;2024-01-27T12:20:05;103629.94;;;11.15;71.45
81033;BME280;70514;52.478;6.102;2024-01-27T12:22:42;103627.16;;;11.28;70.71
81033;BME280;70514;52.478;6.102;2024-01-27T12:25:10;103620.28;;;11.11;72.18
81033;BME280;70514;52.478;6.102;2024-01-27T12:27:41;103623.53;;;11.25;72.02
81033;BME280;70514;52.478;6.102;2024-01-27T12:30:09;103627.56;;;11.20;71.84
81033;BME280;70514;52.478;6.102;2024-01-27T12:32:37;103625.91;;;11.04;72.53
81033;BME280;70514;52.478;6.102;2024-01-27T12:35:05;103614.78;;;11.05;72.08
81033;BME280;70514;52.478;6.102;2024-01-27T12:37:34;103616.78;;;10.93;73.14
81033;BME280;70514;52.478;6.102;2024-01-27T12:40:02;103622.72;;;10.92;73.81
81033;BME280;70514;52.478;6.102;2024-01-27T12:42:30;103612.53;;;10.77;70.18
81033;BME280;70514;52.478;6.102;2024-01-27T12:44:58;103611.13;;;10.84;74.48
81033;BME280;70514;52.478;6.102;2024-01-27T12:47:25;103608.06;;;10.58;72.19
81033;BME280;70514;52.478;6.102;2024-01-27T12:49:54;103613.09;;;10.55;75.01
81033;BME280;70514;52.478;6.102;2024-01-27T12:52:22;103605.91;;;10.66;74.42
81033;BME280;70514;52.478;6.102;2024-01-27T12:54:52;103608.63;;;10.69;74.36
81033;BME280;70514;52.478;6.102;2024-01-27T12:57:21;103608.53;;;10.68;74.95
81033;BME280;70514;52.478;6.102;2024-01-27T12:59:48;103608.72;;;10.54;75.29